Time;durP1;ratioP1;P1;durP2;ratioP2;P2;SDS_P1;SDS_P2;PMS_P1;PMS_P2;Temp;Humidity;BMP_temperature;BMP_pressure;BME280_temperature;BME280_humidity;BME280_pressure;Samples;Min_cycle;Max_cycle;Signal;HPM_P1;HPM_P2
2023/05/18 00:00:22;;;;;;;6.53;2.30;;;9.90;81.80;;;;;;2102530;28;20054;-72
2023/05/18 00:01:22;;;;;;;10.88;3.05;;;10.00;81.70;;;;;;2105623;28;20027;-72
2023/05/18 00:02:25;;;;;;;8.30;2.78;;;10.00;82.70;;;;;;2101861;28;20070;-72
2023/05/18 00:03:27;;;;;;;5.10;2.20;;;9.90;82.70;;;;;;2105273;28;20585;-72
2023/05/18 00:04:28;;;;;;;9.00;3.00;;;9.90;83.00;;;;;;2105175;28;20024;-72
2023/05/18 00:05:32;;;;;;;8.75;3.05;;;9.90;83.60;;;;;;2102573;28;20460;-72
2023/05/18 00:06:33;;;;;;;11.68;3.47;;;9.90;84.10;;;;;;2107443;28;20632;-72
2023/05/18 00:07:33;;;;;;;13.15;2.75;;;9.90;84.80;;;;;;2102857;28;20024;-72
2023/05/18 00:08:35;;;;;;;9.90;3.20;;;9.80;85.00;;;;;;2101732;28;20031;-72
2023/05/18 00:09:36;;;;;;;9.18;2.72;;;9.80;85.10;;;;;;2103135;28;20418;-72
2023/05/18 00:10:37;;;;;;;10.75;2.92;;;9.80;85.20;;;;;;2094058;28;20111;-72
2023/05/18 00:11:39;;;;;;;7.25;2.92;;;9.80;85.40;;;;;;2102310;28;20537;-72
2023/05/18 00:12:40;;;;;;;7.45;3.13;;;9.80;85.90;;;;;;2105230;28;20016;-72
2023/05/18 00:13:41;;;;;;;10.27;2.85;;;9.80;85.80;;;;;;2100919;28;20058;-72
2023/05/18 00:14:41;;;;;;;9.30;2.88;;;9.80;85.20;;;;;;2106265;28;20521;-72
2023/05/18 00:15:42;;;;;;;8.45;2.92;;;9.80;85.90;;;;;;2104994;28;20031;-72
2023/05/18 00:16:42;;;;;;;9.00;3.03;;;9.80;86.70;;;;;;2101445;28;20510;-72
2023/05/18 00:17:44;;;;;;;9.50;3.30;;;9.70;87.10;;;;;;2104003;28;20179;-72
2023/05/18 00:18:45;;;;;;;7.40;3.45;;;9.70;87.60;;;;;;2105214;28;20028;-72
2023/05/18 00:19:45;;;;;;;7.03;2.72;;;9.70;87.30;;;;;;2106383;28;20086;-72
2023/05/18 00:20:46;;;;;;;7.22;2.78;;;9.70;86.70;;;;;;2104013;28;20024;-72
2023/05/18 00:21:47;;;;;;;9.05;3.20;;;9.70;87.30;;;;;;2102929;28;20028;-72
2023/05/18 00:22:49;;;;;;;5.85;2.78;;;9.70;87.60;;;;;;2104742;28;20067;-72
2023/05/18 00:23:50;;;;;;;7.72;3.22;;;9.70;87.70;;;;;;2104742;28;20885;-72
2023/05/18 00:24:52;;;;;;;6.55;2.80;;;9.70;88.00;;;;;;2101956;28;20123;-72
2023/05/18 00:25:52;;;;;;;8.30;2.72;;;9.70;88.00;;;;;;2104875;28;20834;-72
2023/05/18 00:26:53;;;;;;;9.18;3.17;;;9.70;87.60;;;;;;2101420;28;20404;-72
2023/05/18 00:27:53;;;;;;;9.35;3.50;;;9.70;88.30;;;;;;2105016;28;20094;-72
2023/05/18 00:28:54;;;;;;;6.93;2.65;;;9.70;88.70;;;;;;2104488;28;20475;-72
2023/05/18 00:29:54;;;;;;;7.57;2.47;;;9.60;89.00;;;;;;2103069;28;20019;-72
2023/05/18 00:30:55;;;;;;;6.32;2.80;;;9.60;88.70;;;;;;2106343;28;20089;-72
2023/05/18 00:31:56;;;;;;;9.18;2.88;;;9.60;88.70;;;;;;2103787;28;20033;-72
2023/05/18 00:32:57;;;;;;;10.63;2.88;;;9.60;89.60;;;;;;2103088;28;20048;-72
2023/05/18 00:33:57;;;;;;;7.55;2.78;;;9.60;89.70;;;;;;2101651;28;20132;-72
2023/05/18 00:34:58;;;;;;;6.78;2.42;;;9.60;90.20;;;;;;2103586;28;20499;-72
2023/05/18 00:35:58;;;;;;;8.85;3.17;;;9.60;90.30;;;;;;2105774;28;20073;-72
2023/05/18 00:36:59;;;;;;;11.10;2.47;;;9.50;90.60;;;;;;2103816;28;20024;-72
2023/05/18 00:37:59;;;;;;;12.35;3.75;;;9.50;90.50;;;;;;2101857;28;20065;-72
2023/05/18 00:39:00;;;;;;;12.10;3.00;;;9.50;90.40;;;;;;2103964;28;20098;-72
2023/05/18 00:40:01;;;;;;;10.40;3.40;;;9.50;90.20;;;;;;2104527;28;20034;-72
2023/05/18 00:41:02;;;;;;;6.80;2.95;;;9.50;90.20;;;;;;2103400;28;20036;-72
2023/05/18 00:42:02;;;;;;;9.00;2.90;;;9.50;90.10;;;;;;2103960;28;20042;-72
2023/05/18 00:43:03;;;;;;;8.48;3.00;;;9.50;90.20;;;;;;2103131;28;20092;-72
2023/05/18 00:44:04;;;;;;;8.82;3.13;;;9.50;89.70;;;;;;2106190;28;20054;-72
2023/05/18 00:45:05;;;;;;;8.15;2.72;;;9.50;90.20;;;;;;2105052;28;20012;-72
2023/05/18 00:46:06;;;;;;;8.45;2.80;;;9.50;90.40;;;;;;2104695;28;20107;-72
2023/05/18 00:47:08;;;;;;;6.53;2.92;;;9.50;90.00;;;;;;2103377;28;20009;-72
2023/05/18 00:48:08;;;;;;;11.95;3.05;;;9.50;90.30;;;;;;2105271;28;20026;-72
2023/05/18 00:49:10;;;;;;;7.90;2.88;;;9.50;90.60;;;;;;2102737;28;20044;-72
2023/05/18 00:50:11;;;;;;;6.63;2.53;;;9.40;90.10;;;;;;2103364;28;20016;-72
2023/05/18 00:51:12;;;;;;;7.80;2.70;;;9.40;90.10;;;;;;2103163;28;20028;-72
2023/05/18 00:52:12;;;;;;;8.82;3.15;;;9.50;90.30;;;;;;2103482;28;20036;-72
2023/05/18 00:53:13;;;;;;;7.63;3.03;;;9.40;90.50;;;;;;2106124;28;20476;-72
2023/05/18 00:54:14;;;;;;;9.68;2.80;;;9.40;90.90;;;;;;2103275;28;20066;-72
2023/05/18 00:55:15;;;;;;;10.30;3.15;;;9.40;90.50;;;;;;2102802;28;20498;-72
2023/05/18 00:56:15;;;;;;;7.40;3.20;;;9.40;90.60;;;;;;2103184;28;20387;-72
2023/05/18 00:57:17;;;;;;;9.40;3.08;;;9.40;90.80;;;;;;2104272;28;20081;-72
2023/05/18 00:58:18;;;;;;;9.07;2.67;;;9.40;91.20;;;;;;2102764;28;20541;-72
2023/05/18 00:59:19;;;;;;;14.23;4.00;;;9.40;91.50;;;;;;2103335;28;20068;-72
2023/05/18 01:00:20;;;;;;;8.32;2.90;;;9.30;91.70;;;;;;2103575;28;20024;-72
2023/05/18 01:01:30;;;;;;;8.00;3.25;;;9.30;92.10;;;;;;2105004;28;20024;-72
2023/05/18 01:02:31;;;;;;;7.57;2.80;;;9.30;93.10;;;;;;2105095;28;20035;-72
2023/05/18 01:03:33;;;;;;;10.35;3.67;;;9.30;92.60;;;;;;2105273;28;20020;-72
2023/05/18 01:04:33;;;;;;;8.57;2.88;;;9.30;92.80;;;;;;2104129;28;20019;-72
2023/05/18 01:05:34;;;;;;;11.50;3.03;;;9.20;92.80;;;;;;2103697;28;20013;-72
2023/05/18 01:06:35;;;;;;;10.30;3.72;;;9.20;92.80;;;;;;2104111;28;20031;-72
2023/05/18 01:07:41;;;;;;;12.52;3.38;;;9.30;93.10;;;;;;2102527;28;20023;-72
2023/05/18 01:08:42;;;;;;;9.90;3.03;;;9.20;93.90;;;;;;2103431;28;20471;-72
2023/05/18 01:09:43;;;;;;;7.28;2.65;;;9.20;94.10;;;;;;2104008;28;20456;-72
2023/05/18 01:10:47;;;;;;;6.65;2.85;;;9.20;93.50;;;;;;2104798;28;20476;-72
2023/05/18 01:12:07;;;;;;;7.05;2.67;;;9.10;93.30;;;;;;2105279;28;20484;-72
2023/05/18 01:13:21;;;;;;;9.38;3.80;;;9.10;93.10;;;;;;2108382;28;20509;-72
2023/05/18 01:14:37;;;;;;;8.85;3.38;;;9.10;93.30;;;;;;2105442;28;20116;-72
2023/05/18 01:15:40;;;;;;;7.10;2.90;;;9.10;93.60;;;;;;2100730;28;20029;-72
2023/05/18 01:16:53;;;;;;;9.05;3.15;;;9.10;93.50;;;;;;2106227;28;20497;-72
2023/05/18 01:18:03;;;;;;;8.98;3.17;;;9.10;93.70;;;;;;2106512;28;20073;-72
2023/05/18 01:19:23;;;;;;;;;;;9.10;93.90;;;;;;2105802;28;20721;-72
2023/05/18 01:20:44;;;;;;;9.43;3.05;;;9.00;95.30;;;;;;2105253;28;19998;-72
2023/05/18 01:22:13;;;;;;;11.00;3.28;;;9.00;94.20;;;;;;2105193;28;20115;-72
2023/05/18 01:23:51;;;;;;;7.97;2.88;;;9.00;95.30;;;;;;2103649;28;20372;-72
2023/05/18 01:25:02;;;;;;;7.03;3.38;;;8.90;95.50;;;;;;2107606;28;20020;-72
2023/05/18 01:26:37;;;;;;;9.13;3.00;;;8.90;95.00;;;;;;2104110;28;20074;-72
2023/05/18 01:27:41;;;;;;;12.80;3.60;;;8.90;96.70;;;;;;2079097;28;20165;-71
2023/05/18 01:28:45;;;;;;;6.43;2.97;;;8.90;95.70;;;;;;2100119;28;20507;-71
2023/05/18 01:29:48;;;;;;;6.03;3.15;;;8.90;95.40;;;;;;2104319;28;20027;-72
2023/05/18 01:30:49;;;;;;;8.57;2.53;;;8.90;95.10;;;;;;2103365;28;20020;-72
2023/05/18 01:31:50;;;;;;;9.32;2.97;;;8.90;94.90;;;;;;2103339;28;20111;-72
2023/05/18 01:32:50;;;;;;;9.60;3.00;;;8.90;94.80;;;;;;2103993;28;21027;-72
2023/05/18 01:33:51;;;;;;;9.07;3.03;;;8.90;94.80;;;;;;2105062;28;20020;-72
2023/05/18 01:34:52;;;;;;;8.68;3.25;;;8.90;94.70;;;;;;2106068;28;20114;-72
2023/05/18 01:35:52;;;;;;;11.38;3.10;;;8.90;94.80;;;;;;2104096;28;20066;-72
2023/05/18 01:36:53;;;;;;;13.80;2.88;;;8.90;95.10;;;;;;2107055;28;20016;-72
2023/05/18 01:37:53;;;;;;;9.80;3.50;;;8.90;95.40;;;;;;2105511;28;20028;-72
2023/05/18 01:38:55;;;;;;;7.95;3.33;;;8.90;95.70;;;;;;2104085;28;20028;-72
2023/05/18 01:39:56;;;;;;;7.57;3.33;;;8.80;95.90;;;;;;2104361;28;20032;-71
2023/05/18 01:41:16;;;;;;;5.70;3.13;;;8.80;96.20;;;;;;2103563;28;20028;-71
2023/05/18 01:42:22;;;;;;;10.77;3.60;;;8.80;96.20;;;;;;2104744;28;20155;-71
2023/05/18 01:43:30;;;;;;;8.45;3.40;;;8.80;96.30;;;;;;2105214;28;20027;-71
2023/05/18 01:44:42;;;;;;;6.13;3.20;;;8.80;96.40;;;;;;2103613;28;20490;-71
2023/05/18 01:45:47;;;;;;;8.63;3.13;;;8.80;96.50;;;;;;2104890;28;20043;-71
2023/05/18 01:47:11;;;;;;;10.98;2.83;;;8.80;96.60;;;;;;2104836;28;20016;-72
2023/05/18 01:48:17;;;;;;;11.82;3.17;;;8.80;96.90;;;;;;2107861;28;20071;-72
2023/05/18 01:49:32;;;;;;;8.65;2.70;;;8.70;96.50;;;;;;2108021;28;20012;-71
2023/05/18 01:50:37;;;;;;;8.52;3.00;;;8.70;96.40;;;;;;2103395;28;20120;-71
2023/05/18 01:51:43;;;;;;;9.38;3.40;;;8.70;96.30;;;;;;2103710;28;20024;-71
2023/05/18 01:52:51;;;;;;;10.23;3.40;;;8.70;96.00;;;;;;2103303;28;20028;-72
2023/05/18 01:53:59;;;;;;;5.38;3.17;;;8.70;97.00;;;;;;2105189;28;20292;-72
2023/05/18 01:55:03;;;;;;;8.27;3.45;;;8.70;97.00;;;;;;2102690;28;20036;-72
2023/05/18 01:56:07;;;;;;;11.43;3.22;;;8.70;97.40;;;;;;2106306;28;20093;-71
2023/05/18 01:57:08;;;;;;;9.27;3.13;;;8.70;97.90;;;;;;2106804;28;20123;-71
2023/05/18 01:58:12;;;;;;;13.25;3.80;;;8.60;97.80;;;;;;2106246;28;20043;-71
2023/05/18 01:59:13;;;;;;;8.25;3.20;;;8.60;98.30;;;;;;2106335;28;20154;-71
2023/05/18 02:00:16;;;;;;;7.10;2.97;;;8.60;97.50;;;;;;2106232;28;20845;-72
2023/05/18 02:01:18;;;;;;;8.10;3.63;;;8.70;97.50;;;;;;2106251;28;20030;-72
2023/05/18 02:02:19;;;;;;;11.70;3.08;;;8.60;97.60;;;;;;2104783;28;20023;-72
2023/05/18 02:03:20;;;;;;;7.38;3.03;;;8.60;97.60;;;;;;2107561;28;20046;-71
2023/05/18 02:04:20;;;;;;;6.72;3.17;;;8.60;97.50;;;;;;2105557;28;20115;-71
2023/05/18 02:05:21;;;;;;;8.90;3.20;;;8.60;97.40;;;;;;2106755;28;20023;-71
2023/05/18 02:06:21;;;;;;;12.60;3.63;;;8.60;97.40;;;;;;2106609;28;20127;-71
2023/05/18 02:07:22;;;;;;;8.00;3.30;;;8.60;97.50;;;;;;2106020;28;20030;-72
2023/05/18 02:08:22;;;;;;;10.15;3.85;;;8.60;97.80;;;;;;2105659;28;20032;-72
2023/05/18 02:09:23;;;;;;;8.73;3.30;;;8.60;98.10;;;;;;2104822;28;20019;-71
2023/05/18 02:10:23;;;;;;;9.25;3.97;;;8.50;98.40;;;;;;2104307;28;20095;-71
2023/05/18 02:11:25;;;;;;;6.65;3.42;;;8.60;98.10;;;;;;2106050;28;20055;-71
2023/05/18 02:12:25;;;;;;;8.10;3.33;;;8.60;98.70;;;;;;2104116;28;20025;-71
2023/05/18 02:13:26;;;;;;;6.38;3.33;;;8.60;99.10;;;;;;2105355;28;20024;-72
2023/05/18 02:14:26;;;;;;;4.85;3.13;;;8.50;99.20;;;;;;2105709;28;20032;-71
2023/05/18 02:15:27;;;;;;;6.78;2.97;;;8.50;99.40;;;;;;2105515;28;20024;-72
2023/05/18 02:16:27;;;;;;;8.23;3.15;;;8.50;99.20;;;;;;2104859;28;20074;-72
2023/05/18 02:17:28;;;;;;;11.73;4.00;;;8.50;98.80;;;;;;2103790;28;20095;-71
2023/05/18 02:18:32;;;;;;;9.73;3.28;;;8.50;98.90;;;;;;2107363;28;20037;-71
2023/05/18 02:19:36;;;;;;;7.38;3.08;;;8.50;99.20;;;;;;2105217;28;20024;-71
2023/05/18 02:20:37;;;;;;;6.13;3.60;;;8.50;99.60;;;;;;2103899;28;20456;-71
2023/05/18 02:21:38;;;;;;;9.32;3.55;;;8.50;99.90;;;;;;2101907;28;20442;-71
2023/05/18 02:22:38;;;;;;;5.57;3.40;;;8.40;99.90;;;;;;2105735;28;20100;-71
2023/05/18 02:23:40;;;;;;;6.63;3.80;;;8.50;99.90;;;;;;2106077;28;20387;-71
2023/05/18 02:24:40;;;;;;;6.75;3.55;;;8.40;99.90;;;;;;2106017;28;20016;-71
2023/05/18 02:25:43;;;;;;;10.52;3.38;;;8.40;99.90;;;;;;2101895;28;20507;-71
2023/05/18 02:26:44;;;;;;;9.82;4.20;;;8.40;99.90;;;;;;2104338;28;20020;-71
2023/05/18 02:27:44;;;;;;;12.30;3.90;;;8.40;99.90;;;;;;2103118;28;20017;-71
2023/05/18 02:28:45;;;;;;;9.77;3.65;;;8.40;99.90;;;;;;2105708;28;20590;-71
2023/05/18 02:29:46;;;;;;;9.50;4.07;;;8.40;99.90;;;;;;2105314;28;20016;-71
2023/05/18 02:30:46;;;;;;;11.52;3.90;;;8.30;99.90;;;;;;2107976;28;20750;-71
2023/05/18 02:31:47;;;;;;;8.27;3.47;;;8.30;99.90;;;;;;2106170;28;20016;-71
2023/05/18 02:32:48;;;;;;;8.77;4.00;;;8.30;99.90;;;;;;2105999;28;20111;-71
2023/05/18 02:33:48;;;;;;;13.02;3.97;;;8.30;99.90;;;;;;2105067;28;20379;-71
2023/05/18 02:34:52;;;;;;;8.52;4.15;;;8.30;99.90;;;;;;2103955;28;20027;-71
2023/05/18 02:35:53;;;;;;;8.85;3.70;;;8.30;99.90;;;;;;2103025;28;20510;-71
2023/05/18 02:36:56;;;;;;;10.32;3.38;;;8.30;99.90;;;;;;2106027;28;20020;-71
2023/05/18 02:37:57;;;;;;;9.93;3.40;;;8.30;99.90;;;;;;2104902;28;20038;-72
2023/05/18 02:38:57;;;;;;;7.50;3.00;;;8.20;99.90;;;;;;2103187;28;20035;-71
2023/05/18 02:39:58;;;;;;;9.32;3.17;;;8.20;99.90;;;;;;2103061;28;20528;-71
2023/05/18 02:40:58;;;;;;;8.10;3.85;;;8.20;99.90;;;;;;2106333;28;20433;-71
2023/05/18 02:41:59;;;;;;;10.02;3.90;;;8.20;99.90;;;;;;2106329;28;20094;-71
2023/05/18 02:43:00;;;;;;;10.32;3.88;;;8.20;99.90;;;;;;2104017;28;20107;-71
2023/05/18 02:44:01;;;;;;;9.75;3.58;;;8.20;99.90;;;;;;2103486;28;20029;-71
2023/05/18 02:45:02;;;;;;;8.27;3.53;;;8.20;99.90;;;;;;2105690;28;20023;-71
2023/05/18 02:46:03;;;;;;;9.40;3.30;;;8.20;99.90;;;;;;2104121;28;20036;-71
2023/05/18 02:47:04;;;;;;;6.28;2.90;;;8.20;99.90;;;;;;2104487;28;20020;-71
2023/05/18 02:48:05;;;;;;;8.75;3.55;;;8.20;99.90;;;;;;2103850;28;20043;-71
2023/05/18 02:49:05;;;;;;;8.95;3.58;;;8.20;99.90;;;;;;2105644;28;20016;-71
2023/05/18 02:50:06;;;;;;;8.90;3.47;;;8.10;99.90;;;;;;2106390;28;20172;-71
2023/05/18 02:51:07;;;;;;;7.63;3.88;;;8.10;99.90;;;;;;2103371;28;20028;-71
2023/05/18 02:52:07;;;;;;;10.35;3.20;;;8.10;99.90;;;;;;2104524;28;20016;-71
2023/05/18 02:53:08;;;;;;;8.25;3.92;;;8.10;99.90;;;;;;2105921;28;20032;-71
2023/05/18 02:54:08;;;;;;;8.20;4.13;;;8.10;99.90;;;;;;2105474;28;20839;-71
2023/05/18 02:55:09;;;;;;;10.68;3.75;;;8.10;99.90;;;;;;2103920;28;21105;-71
2023/05/18 02:56:11;;;;;;;9.25;4.07;;;8.10;99.90;;;;;;2106347;28;20081;-71
2023/05/18 02:57:12;;;;;;;11.25;4.18;;;8.10;99.90;;;;;;2104361;28;20024;-71
2023/05/18 02:58:14;;;;;;;12.32;4.40;;;8.10;99.90;;;;;;2104820;28;20109;-71
2023/05/18 02:59:14;;;;;;;11.35;4.05;;;8.10;99.90;;;;;;2103421;28;20047;-72
2023/05/18 03:00:16;;;;;;;7.30;4.20;;;8.10;99.90;;;;;;2104960;28;20023;-72
2023/05/18 03:01:17;;;;;;;9.82;3.67;;;8.00;99.90;;;;;;2106825;28;20028;-72
2023/05/18 03:02:17;;;;;;;5.82;3.13;;;8.00;99.90;;;;;;2104466;28;20111;-72
2023/05/18 03:03:18;;;;;;;8.75;3.55;;;8.00;99.90;;;;;;2103379;28;20775;-72
2023/05/18 03:04:20;;;;;;;8.63;3.80;;;8.00;99.90;;;;;;2105010;28;20028;-72
2023/05/18 03:05:22;;;;;;;11.13;4.72;;;8.00;99.90;;;;;;2104916;28;20020;-72
2023/05/18 03:06:25;;;;;;;9.77;3.83;;;8.00;99.90;;;;;;2101969;28;20032;-72
2023/05/18 03:07:26;;;;;;;9.27;4.13;;;8.00;99.90;;;;;;2107573;28;20080;-71
2023/05/18 03:08:27;;;;;;;8.57;4.07;;;8.00;99.90;;;;;;2104362;28;20055;-71
2023/05/18 03:09:28;;;;;;;7.10;3.05;;;8.00;99.90;;;;;;2103145;28;20391;-71
2023/05/18 03:10:29;;;;;;;7.32;3.83;;;8.00;99.90;;;;;;2105057;28;20087;-72
2023/05/18 03:11:29;;;;;;;7.05;3.25;;;8.00;99.90;;;;;;2106683;28;20009;-72
2023/05/18 03:12:30;;;;;;;9.07;4.10;;;7.90;99.90;;;;;;2104528;28;20027;-72
2023/05/18 03:13:30;;;;;;;9.23;4.28;;;8.00;99.90;;;;;;2105372;28;20616;-72
2023/05/18 03:14:31;;;;;;;8.90;4.03;;;7.90;99.90;;;;;;2104798;28;20561;-71
2023/05/18 03:15:32;;;;;;;9.98;4.10;;;7.90;99.90;;;;;;2105637;28;20554;-71
2023/05/18 03:16:32;;;;;;;8.02;3.80;;;7.90;99.90;;;;;;2104968;28;20862;-71
2023/05/18 03:17:33;;;;;;;8.88;3.67;;;7.90;99.90;;;;;;2106301;28;20031;-71
2023/05/18 03:18:33;;;;;;;10.43;4.10;;;7.90;99.90;;;;;;2104616;28;20596;-71
2023/05/18 03:19:34;;;;;;;7.95;3.65;;;7.90;99.90;;;;;;2103653;28;20043;-71
2023/05/18 03:20:36;;;;;;;11.80;4.20;;;7.90;99.90;;;;;;2105073;28;20028;-72
2023/05/18 03:21:37;;;;;;;12.98;4.70;;;7.90;99.90;;;;;;2102653;28;20016;-72
2023/05/18 03:22:38;;;;;;;11.52;4.50;;;7.90;99.90;;;;;;2105221;28;20109;-71
2023/05/18 03:23:39;;;;;;;10.45;3.85;;;7.90;99.90;;;;;;2105744;28;20017;-71
2023/05/18 03:24:39;;;;;;;10.35;3.65;;;7.80;99.90;;;;;;2104306;28;20027;-71
2023/05/18 03:25:40;;;;;;;15.02;4.30;;;7.90;99.90;;;;;;2106139;28;20020;-71
2023/05/18 03:26:43;;;;;;;8.70;4.00;;;7.80;99.90;;;;;;2104082;28;20103;-71
2023/05/18 03:27:43;;;;;;;12.82;4.60;;;7.80;99.90;;;;;;2104117;28;20483;-71
2023/05/18 03:28:44;;;;;;;7.07;3.05;;;7.80;99.90;;;;;;2105737;28;20402;-71
2023/05/18 03:29:44;;;;;;;9.13;4.60;;;7.80;99.90;;;;;;2103032;28;20035;-71
2023/05/18 03:30:45;;;;;;;13.80;3.55;;;7.80;99.90;;;;;;2104937;28;20069;-71
2023/05/18 03:31:46;;;;;;;11.05;3.78;;;7.80;99.90;;;;;;2105153;28;20113;-71
2023/05/18 03:32:47;;;;;;;9.63;4.00;;;7.80;99.90;;;;;;2100389;28;20054;-71
2023/05/18 03:33:48;;;;;;;9.93;4.50;;;7.80;99.90;;;;;;2103526;28;20042;-71
2023/05/18 03:34:49;;;;;;;9.10;4.25;;;7.70;99.90;;;;;;2104891;28;20023;-71
2023/05/18 03:35:51;;;;;;;10.25;4.07;;;7.70;99.90;;;;;;2105230;28;20484;-71
2023/05/18 03:36:53;;;;;;;8.32;4.20;;;7.70;99.90;;;;;;2105298;28;20031;-71
2023/05/18 03:37:54;;;;;;;7.47;3.33;;;7.70;99.90;;;;;;2105185;28;20111;-71
2023/05/18 03:38:54;;;;;;;8.73;3.65;;;7.70;99.90;;;;;;2106099;28;20023;-71
2023/05/18 03:40:06;;;;;;;12.05;3.95;;;7.70;99.90;;;;;;2106252;28;20027;-71
2023/05/18 03:41:07;;;;;;;8.80;4.97;;;7.70;99.90;;;;;;2104266;28;20031;-71
2023/05/18 03:42:08;;;;;;;11.18;4.55;;;7.70;99.90;;;;;;2105629;28;20020;-71
2023/05/18 03:43:08;;;;;;;7.90;3.55;;;7.70;99.90;;;;;;2107495;28;20034;-71
2023/05/18 03:44:09;;;;;;;10.05;4.13;;;7.70;99.90;;;;;;2103921;28;20459;-71
2023/05/18 03:45:10;;;;;;;12.10;4.25;;;7.70;99.90;;;;;;2106558;28;20705;-71
2023/05/18 03:46:11;;;;;;;11.95;4.43;;;7.70;99.90;;;;;;2105665;28;20035;-71
2023/05/18 03:47:13;;;;;;;7.15;3.60;;;7.70;99.90;;;;;;2104255;28;20016;-71
2023/05/18 03:48:13;;;;;;;7.30;4.18;;;7.60;99.90;;;;;;2107069;28;20023;-71
2023/05/18 03:49:14;;;;;;;12.38;4.18;;;7.60;99.90;;;;;;2103948;28;20028;-71
2023/05/18 03:50:14;;;;;;;11.82;4.40;;;7.60;99.90;;;;;;2104243;28;20032;-71
2023/05/18 03:51:15;;;;;;;10.88;4.15;;;7.60;99.90;;;;;;2106702;28;20028;-71
2023/05/18 03:52:21;;;;;;;7.88;3.90;;;7.60;99.90;;;;;;2105851;28;20039;-71
2023/05/18 03:53:21;;;;;;;10.05;3.78;;;7.60;99.90;;;;;;2106587;28;20043;-71
2023/05/18 03:54:23;;;;;;;9.98;4.35;;;7.60;99.90;;;;;;2105918;28;20055;-71
2023/05/18 03:55:25;;;;;;;11.93;3.90;;;7.60;99.90;;;;;;2105271;28;20039;-71
2023/05/18 03:56:25;;;;;;;9.15;4.15;;;7.60;99.90;;;;;;2106541;28;20348;-71
2023/05/18 03:57:27;;;;;;;8.27;4.15;;;7.60;99.90;;;;;;2102598;28;20077;-71
2023/05/18 03:58:28;;;;;;;12.70;4.50;;;7.60;99.90;;;;;;2101517;28;20107;-71
2023/05/18 03:59:28;;;;;;;9.20;4.97;;;7.60;99.90;;;;;;2106643;28;20077;-71
2023/05/18 04:00:29;;;;;;;12.02;6.03;;;7.60;99.90;;;;;;2103109;28;20031;-71
2023/05/18 04:01:31;;;;;;;10.65;4.82;;;7.60;99.90;;;;;;2104187;28;20448;-72
2023/05/18 04:02:32;;;;;;;10.95;4.07;;;7.60;99.90;;;;;;2105340;28;20075;-71
2023/05/18 04:03:33;;;;;;;11.13;4.70;;;7.60;99.90;;;;;;2105724;28;20020;-71
2023/05/18 04:04:33;;;;;;;8.43;4.25;;;7.60;99.90;;;;;;2104883;28;20027;-72
2023/05/18 04:05:34;;;;;;;12.27;4.68;;;7.60;99.90;;;;;;2103729;28;20020;-71
2023/05/18 04:06:34;;;;;;;11.30;4.90;;;7.60;99.90;;;;;;2104878;28;20031;-71
2023/05/18 04:07:42;;;;;;;11.13;4.18;;;7.60;99.90;;;;;;2106705;28;20020;-71
2023/05/18 04:08:44;;;;;;;8.80;3.88;;;7.60;99.90;;;;;;2099878;28;20027;-71
2023/05/18 04:09:45;;;;;;;8.45;4.03;;;7.60;99.90;;;;;;2098652;28;20016;-72
2023/05/18 04:10:46;;;;;;;8.18;3.67;;;7.60;99.90;;;;;;2108267;28;20016;-72
2023/05/18 04:11:46;;;;;;;8.45;4.35;;;7.60;99.90;;;;;;2101530;28;20017;-71
2023/05/18 04:12:47;;;;;;;10.27;4.50;;;7.70;99.90;;;;;;2103510;28;20031;-71
2023/05/18 04:13:49;;;;;;;9.10;4.80;;;7.60;99.90;;;;;;2103804;28;20032;-72
2023/05/18 04:14:50;;;;;;;12.07;4.50;;;7.70;99.90;;;;;;2104405;28;20386;-71
2023/05/18 04:15:50;;;;;;;11.18;4.88;;;7.70;99.90;;;;;;2106473;28;20020;-71
2023/05/18 04:16:51;;;;;;;10.50;4.18;;;7.60;99.90;;;;;;2104621;28;20047;-72
2023/05/18 04:17:52;;;;;;;7.60;4.07;;;7.70;99.90;;;;;;2104107;28;20111;-71
2023/05/18 04:18:53;;;;;;;9.95;4.20;;;7.70;99.90;;;;;;2104773;28;20050;-71
2023/05/18 04:19:54;;;;;;;8.20;4.07;;;7.70;99.90;;;;;;2102951;28;20688;-71
2023/05/18 04:20:55;;;;;;;16.23;5.15;;;7.70;99.90;;;;;;2103204;28;20030;-71
2023/05/18 04:21:56;;;;;;;9.38;4.32;;;7.70;99.90;;;;;;2103979;28;20036;-71
2023/05/18 04:22:56;;;;;;;8.35;4.20;;;7.70;99.90;;;;;;2102157;28;20114;-71
2023/05/18 04:23:58;;;;;;;12.80;4.75;;;7.70;99.90;;;;;;2105031;28;20506;-71
2023/05/18 04:25:00;;;;;;;8.25;4.38;;;7.70;99.90;;;;;;2103666;28;20012;-71
2023/05/18 04:26:01;;;;;;;7.78;4.53;;;7.80;99.90;;;;;;2103703;28;20016;-71
2023/05/18 04:27:02;;;;;;;10.32;4.20;;;7.80;99.90;;;;;;2103298;28;20103;-71
2023/05/18 04:28:02;;;;;;;10.23;4.03;;;7.80;99.90;;;;;;2102736;28;20051;-71
2023/05/18 04:29:06;;;;;;;8.20;4.32;;;7.80;99.90;;;;;;2104304;28;20028;-71
2023/05/18 04:30:10;;;;;;;10.63;4.63;;;7.80;99.90;;;;;;2103545;28;20058;-71
2023/05/18 04:31:13;;;;;;;6.75;4.35;;;7.90;99.90;;;;;;2102237;28;20028;-72
2023/05/18 04:32:13;;;;;;;11.93;6.00;;;7.90;99.90;;;;;;2102847;28;20031;-72
2023/05/18 04:33:15;;;;;;;11.27;5.90;;;8.00;99.90;;;;;;2104876;28;20019;-72
2023/05/18 04:34:17;;;;;;;10.40;4.43;;;8.10;99.90;;;;;;2106290;28;20020;-71
2023/05/18 04:35:18;;;;;;;8.43;4.63;;;8.20;99.90;;;;;;2104580;28;20027;-71
2023/05/18 04:36:19;;;;;;;11.18;4.97;;;8.30;99.90;;;;;;2104162;28;20024;-71
2023/05/18 04:37:19;;;;;;;10.05;4.05;;;8.30;99.90;;;;;;2103119;28;20024;-71
2023/05/18 04:38:23;;;;;;;12.38;4.68;;;8.30;99.90;;;;;;2103067;28;20107;-71
2023/05/18 04:39:24;;;;;;;9.30;4.50;;;8.30;99.90;;;;;;2102115;28;20023;-72
2023/05/18 04:40:25;;;;;;;12.50;5.68;;;8.30;99.90;;;;;;2104991;28;20053;-72
2023/05/18 04:41:25;;;;;;;9.23;5.00;;;8.40;99.90;;;;;;2104326;28;20015;-72
2023/05/18 04:42:29;;;;;;;10.50;4.90;;;8.40;99.90;;;;;;2101832;28;21261;-72
2023/05/18 04:43:29;;;;;;;11.38;5.13;;;8.40;99.90;;;;;;2103813;28;20115;-72
2023/05/18 04:44:33;;;;;;;12.52;5.32;;;8.40;99.90;;;;;;2103877;28;20046;-72
2023/05/18 04:45:34;;;;;;;15.82;4.75;;;8.50;99.90;;;;;;2102329;28;20017;-72
2023/05/18 04:46:38;;;;;;;10.88;4.60;;;8.50;99.90;;;;;;2104251;28;20031;-72
2023/05/18 04:47:39;;;;;;;11.43;4.70;;;8.50;99.90;;;;;;2101488;28;20048;-72
2023/05/18 04:48:39;;;;;;;9.98;4.82;;;8.50;99.90;;;;;;2102758;28;20011;-72
2023/05/18 04:49:40;;;;;;;10.25;4.80;;;8.60;99.90;;;;;;2105127;28;20047;-72
2023/05/18 04:50:40;;;;;;;10.93;4.75;;;8.60;99.90;;;;;;2102914;28;20056;-72
2023/05/18 04:51:42;;;;;;;9.52;4.05;;;8.60;99.90;;;;;;2105763;28;20024;-72
2023/05/18 04:52:49;;;;;;;10.43;4.55;;;8.70;99.90;;;;;;2103193;28;20450;-72
2023/05/18 04:53:50;;;;;;;13.30;5.03;;;8.70;99.90;;;;;;2104387;28;20024;-72
2023/05/18 04:54:51;;;;;;;12.02;5.22;;;8.80;99.90;;;;;;2104957;28;20020;-72
2023/05/18 04:55:53;;;;;;;11.32;4.75;;;8.80;99.90;;;;;;2095301;28;20024;-72
2023/05/18 04:56:53;;;;;;;9.15;4.07;;;8.80;99.90;;;;;;2101277;28;20016;-72
2023/05/18 04:57:55;;;;;;;9.40;4.35;;;8.90;99.90;;;;;;2103221;28;20052;-72
2023/05/18 04:58:58;;;;;;;9.13;3.92;;;9.00;99.90;;;;;;2101680;28;20494;-72
2023/05/18 04:59:58;;;;;;;8.75;4.85;;;9.00;99.90;;;;;;2102916;28;20127;-72
2023/05/18 05:00:59;;;;;;;12.00;4.70;;;9.10;99.90;;;;;;2103650;28;20032;-72
2023/05/18 05:02:00;;;;;;;9.65;4.78;;;9.20;99.90;;;;;;2104245;28;20020;-72
2023/05/18 05:03:00;;;;;;;9.60;4.50;;;9.20;99.90;;;;;;2104768;28;20028;-72
2023/05/18 05:04:01;;;;;;;10.38;4.47;;;9.20;99.90;;;;;;2104762;28;20073;-72
2023/05/18 05:05:01;;;;;;;10.15;5.13;;;9.30;99.90;;;;;;2104316;28;20020;-72
2023/05/18 05:06:02;;;;;;;11.27;4.80;;;9.40;99.90;;;;;;2106012;28;20066;-72
2023/05/18 05:07:03;;;;;;;11.75;4.93;;;9.40;99.90;;;;;;2101697;28;20441;-72
2023/05/18 05:08:05;;;;;;;11.75;4.45;;;9.50;99.90;;;;;;2105886;28;20027;-72
2023/05/18 05:09:06;;;;;;;11.75;4.15;;;9.60;99.90;;;;;;2103555;28;20795;-72
2023/05/18 05:10:07;;;;;;;10.98;4.32;;;9.60;99.90;;;;;;2103070;28;20024;-72
2023/05/18 05:11:08;;;;;;;9.45;5.05;;;9.70;99.90;;;;;;2104403;28;20111;-72
2023/05/18 05:12:08;;;;;;;8.30;4.03;;;9.70;99.90;;;;;;2101853;28;20085;-72
2023/05/18 05:13:09;;;;;;;12.82;4.40;;;9.80;99.90;;;;;;2102497;28;20056;-72
2023/05/18 05:14:10;;;;;;;12.27;4.90;;;9.90;99.90;;;;;;2105136;28;20048;-72
2023/05/18 05:15:10;;;;;;;6.72;3.80;;;9.90;99.90;;;;;;2102660;28;20060;-72
2023/05/18 05:16:11;;;;;;;8.52;4.10;;;10.00;99.90;;;;;;2103290;28;20426;-72
2023/05/18 05:17:12;;;;;;;14.45;4.60;;;10.10;99.90;;;;;;2104797;28;20023;-72
2023/05/18 05:18:12;;;;;;;9.20;3.97;;;10.20;99.90;;;;;;2094159;28;20049;-72
2023/05/18 05:19:13;;;;;;;8.77;4.38;;;10.20;99.90;;;;;;2098024;28;20037;-72
2023/05/18 05:20:14;;;;;;;11.25;4.22;;;10.30;99.90;;;;;;2102379;28;20039;-72
2023/05/18 05:21:15;;;;;;;10.45;4.70;;;10.40;99.90;;;;;;2102565;28;20017;-72
2023/05/18 05:22:16;;;;;;;11.75;4.40;;;10.50;99.90;;;;;;2104007;28;20109;-72
2023/05/18 05:23:17;;;;;;;10.77;4.30;;;10.50;99.90;;;;;;2104572;28;20026;-72
2023/05/18 05:24:17;;;;;;;10.85;4.20;;;10.60;99.90;;;;;;2105775;28;20107;-72
2023/05/18 05:25:18;;;;;;;10.63;4.80;;;10.70;99.90;;;;;;2104134;28;20440;-72
2023/05/18 05:26:20;;;;;;;9.32;4.20;;;10.70;99.90;;;;;;2100620;28;20019;-72